sensor_id;sensor_type;location;lat;lon;timestamp;P1;durP1;ratioP1;P2;durP2;ratioP2
58244;SDS011;44550;43.864;25.986;2022-12-07T00:03:36;31.25;;;15.93;;
58244;SDS011;44550;43.864;25.986;2022-12-07T00:07:37;37.55;;;18.25;;
58244;SDS011;44550;43.864;25.986;2022-12-07T00:15:37;31.48;;;16.85;;
58244;SDS011;44550;43.864;25.986;2022-12-07T00:19:36;41.53;;;16.50;;
58244;SDS011;44550;43.864;25.986;2022-12-07T00:27:36;42.13;;;18.20;;
58244;SDS011;44550;43.864;25.986;2022-12-07T00:35:37;32.30;;;15.93;;
58244;SDS011;44550;43.864;25.986;2022-12-07T00:43:35;36.22;;;17.85;;
58244;SDS011;44550;43.864;25.986;2022-12-07T00:47:37;38.78;;;15.65;;
58244;SDS011;44550;43.864;25.986;2022-12-07T00:51:36;29.92;;;16.27;;
58244;SDS011;44550;43.864;25.986;2022-12-07T00:55:35;37.30;;;16.98;;
58244;SDS011;44550;43.864;25.986;2022-12-07T00:59:36;38.65;;;17.50;;
58244;SDS011;44550;43.864;25.986;2022-12-07T01:03:37;30.60;;;17.65;;
58244;SDS011;44550;43.864;25.986;2022-12-07T01:07:38;33.17;;;15.40;;
58244;SDS011;44550;43.864;25.986;2022-12-07T01:15:38;28.02;;;15.15;;
58244;SDS011;44550;43.864;25.986;2022-12-07T01:19:40;32.28;;;16.73;;
58244;SDS011;44550;43.864;25.986;2022-12-07T01:23:40;30.77;;;14.80;;
58244;SDS011;44550;43.864;25.986;2022-12-07T01:31:38;29.02;;;14.35;;
58244;SDS011;44550;43.864;25.986;2022-12-07T01:35:40;26.45;;;15.52;;
58244;SDS011;44550;43.864;25.986;2022-12-07T01:39:39;33.22;;;16.75;;
58244;SDS011;44550;43.864;25.986;2022-12-07T01:44:06;24.77;;;13.98;;
58244;SDS011;44550;43.864;25.986;2022-12-07T01:48:06;28.73;;;16.15;;
58244;SDS011;44550;43.864;25.986;2022-12-07T01:52:13;27.55;;;16.48;;
58244;SDS011;44550;43.864;25.986;2022-12-07T01:56:17;27.52;;;16.67;;
58244;SDS011;44550;43.864;25.986;2022-12-07T02:00:19;30.60;;;15.90;;
58244;SDS011;44550;43.864;25.986;2022-12-07T02:04:19;28.40;;;17.35;;
58244;SDS011;44550;43.864;25.986;2022-12-07T02:08:21;29.13;;;14.93;;
58244;SDS011;44550;43.864;25.986;2022-12-07T02:12:21;29.77;;;15.98;;
58244;SDS011;44550;43.864;25.986;2022-12-07T02:16:25;24.77;;;14.93;;
58244;SDS011;44550;43.864;25.986;2022-12-07T02:20:30;28.80;;;15.80;;
58244;SDS011;44550;43.864;25.986;2022-12-07T02:24:41;26.38;;;14.93;;
58244;SDS011;44550;43.864;25.986;2022-12-07T02:28:58;37.42;;;14.85;;
58244;SDS011;44550;43.864;25.986;2022-12-07T02:33:11;28.80;;;13.30;;
58244;SDS011;44550;43.864;25.986;2022-12-07T02:37:17;39.70;;;14.55;;
58244;SDS011;44550;43.864;25.986;2022-12-07T02:45:28;28.58;;;14.30;;
58244;SDS011;44550;43.864;25.986;2022-12-07T02:49:29;27.48;;;14.15;;
58244;SDS011;44550;43.864;25.986;2022-12-07T02:53:33;34.60;;;15.85;;
58244;SDS011;44550;43.864;25.986;2022-12-07T02:57:38;33.88;;;16.83;;
58244;SDS011;44550;43.864;25.986;2022-12-07T03:01:50;45.72;;;17.65;;
58244;SDS011;44550;43.864;25.986;2022-12-07T03:06:06;41.47;;;16.02;;
58244;SDS011;44550;43.864;25.986;2022-12-07T03:10:13;41.75;;;16.92;;
58244;SDS011;44550;43.864;25.986;2022-12-07T03:14:18;49.80;;;18.60;;
58244;SDS011;44550;43.864;25.986;2022-12-07T03:18:28;40.00;;;16.88;;
58244;SDS011;44550;43.864;25.986;2022-12-07T03:22:33;40.95;;;16.23;;
58244;SDS011;44550;43.864;25.986;2022-12-07T03:26:38;55.13;;;17.40;;
58244;SDS011;44550;43.864;25.986;2022-12-07T03:30:44;53.22;;;18.85;;
58244;SDS011;44550;43.864;25.986;2022-12-07T03:34:50;51.10;;;16.73;;
58244;SDS011;44550;43.864;25.986;2022-12-07T03:38:57;103.50;;;23.43;;
58244;SDS011;44550;43.864;25.986;2022-12-07T03:43:02;49.58;;;16.67;;
58244;SDS011;44550;43.864;25.986;2022-12-07T03:47:04;39.80;;;18.30;;
58244;SDS011;44550;43.864;25.986;2022-12-07T03:51:11;42.83;;;15.85;;
58244;SDS011;44550;43.864;25.986;2022-12-07T03:55:19;44.42;;;17.27;;
58244;SDS011;44550;43.864;25.986;2022-12-07T03:59:23;43.53;;;19.88;;
58244;SDS011;44550;43.864;25.986;2022-12-07T04:03:24;43.55;;;17.65;;
58244;SDS011;44550;43.864;25.986;2022-12-07T04:07:26;41.17;;;16.88;;
58244;SDS011;44550;43.864;25.986;2022-12-07T04:11:25;40.63;;;18.50;;
58244;SDS011;44550;43.864;25.986;2022-12-07T04:15:28;34.25;;;18.52;;
58244;SDS011;44550;43.864;25.986;2022-12-07T04:19:29;42.28;;;18.40;;
58244;SDS011;44550;43.864;25.986;2022-12-07T04:23:31;31.55;;;17.27;;
58244;SDS011;44550;43.864;25.986;2022-12-07T04:27:32;34.67;;;17.90;;
58244;SDS011;44550;43.864;25.986;2022-12-07T04:31:31;33.70;;;17.42;;
58244;SDS011;44550;43.864;25.986;2022-12-07T04:35:33;31.83;;;16.40;;
58244;SDS011;44550;43.864;25.986;2022-12-07T04:39:36;35.17;;;16.58;;
58244;SDS011;44550;43.864;25.986;2022-12-07T04:43:36;33.97;;;16.27;;
58244;SDS011;44550;43.864;25.986;2022-12-07T04:47:36;31.40;;;17.80;;
58244;SDS011;44550;43.864;25.986;2022-12-07T04:51:36;40.30;;;19.42;;
58244;SDS011;44550;43.864;25.986;2022-12-07T04:55:38;32.88;;;18.38;;
58244;SDS011;44550;43.864;25.986;2022-12-07T04:59:38;38.05;;;20.05;;
58244;SDS011;44550;43.864;25.986;2022-12-07T05:03:42;34.10;;;19.42;;
58244;SDS011;44550;43.864;25.986;2022-12-07T05:07:42;35.40;;;18.35;;
58244;SDS011;44550;43.864;25.986;2022-12-07T05:11:44;31.10;;;18.92;;
58244;SDS011;44550;43.864;25.986;2022-12-07T05:15:43;37.40;;;19.27;;
58244;SDS011;44550;43.864;25.986;2022-12-07T05:23:42;37.85;;;19.63;;
58244;SDS011;44550;43.864;25.986;2022-12-07T05:27:47;44.72;;;24.95;;
58244;SDS011;44550;43.864;25.986;2022-12-07T05:31:48;37.53;;;19.92;;
58244;SDS011;44550;43.864;25.986;2022-12-07T05:35:48;32.92;;;17.95;;
58244;SDS011;44550;43.864;25.986;2022-12-07T05:39:47;38.63;;;20.50;;
58244;SDS011;44550;43.864;25.986;2022-12-07T05:43:49;34.33;;;18.60;;
58244;SDS011;44550;43.864;25.986;2022-12-07T05:47:48;56.88;;;35.65;;
58244;SDS011;44550;43.864;25.986;2022-12-07T05:51:51;28.58;;;18.33;;
58244;SDS011;44550;43.864;25.986;2022-12-07T05:55:51;125.40;;;59.17;;
58244;SDS011;44550;43.864;25.986;2022-12-07T05:59:53;40.40;;;21.35;;
58244;SDS011;44550;43.864;25.986;2022-12-07T06:03:53;29.88;;;17.67;;
58244;SDS011;44550;43.864;25.986;2022-12-07T06:07:53;29.15;;;16.75;;
58244;SDS011;44550;43.864;25.986;2022-12-07T06:12:03;37.47;;;20.07;;
58244;SDS011;44550;43.864;25.986;2022-12-07T06:16:21;40.20;;;18.80;;
58244;SDS011;44550;43.864;25.986;2022-12-07T06:20:21;32.92;;;17.80;;
58244;SDS011;44550;43.864;25.986;2022-12-07T06:24:20;33.65;;;19.15;;
58244;SDS011;44550;43.864;25.986;2022-12-07T06:28:21;33.05;;;17.38;;
58244;SDS011;44550;43.864;25.986;2022-12-07T06:32:23;32.20;;;19.60;;
58244;SDS011;44550;43.864;25.986;2022-12-07T06:36:23;601.15;;;208.95;;
58244;SDS011;44550;43.864;25.986;2022-12-07T06:40:27;68.97;;;33.38;;
58244;SDS011;44550;43.864;25.986;2022-12-07T06:44:28;62.97;;;32.25;;
58244;SDS011;44550;43.864;25.986;2022-12-07T06:48:30;27.95;;;16.85;;
58244;SDS011;44550;43.864;25.986;2022-12-07T06:52:30;28.73;;;18.02;;
58244;SDS011;44550;43.864;25.986;2022-12-07T06:56:33;38.65;;;23.80;;
58244;SDS011;44550;43.864;25.986;2022-12-07T07:00:35;27.75;;;18.10;;
58244;SDS011;44550;43.864;25.986;2022-12-07T07:04:37;35.50;;;26.48;;
58244;SDS011;44550;43.864;25.986;2022-12-07T07:08:37;62.38;;;38.10;;
58244;SDS011;44550;43.864;25.986;2022-12-07T07:12:37;28.80;;;18.05;;
58244;SDS011;44550;43.864;25.986;2022-12-07T07:16:38;28.27;;;18.90;;
58244;SDS011;44550;43.864;25.986;2022-12-07T07:20:39;28.10;;;16.85;;
58244;SDS011;44550;43.864;25.986;2022-12-07T07:24:41;70.13;;;48.80;;
58244;SDS011;44550;43.864;25.986;2022-12-07T07:28:41;25.15;;;15.65;;
58244;SDS011;44550;43.864;25.986;2022-12-07T07:32:41;32.88;;;18.92;;
58244;SDS011;44550;43.864;25.986;2022-12-07T07:36:43;33.08;;;18.52;;
58244;SDS011;44550;43.864;25.986;2022-12-07T07:40:45;29.30;;;17.92;;
58244;SDS011;44550;43.864;25.986;2022-12-07T07:44:45;119.47;;;64.22;;
58244;SDS011;44550;43.864;25.986;2022-12-07T07:48:45;23.90;;;16.05;;
58244;SDS011;44550;43.864;25.986;2022-12-07T07:52:47;26.05;;;17.15;;
58244;SDS011;44550;43.864;25.986;2022-12-07T07:56:47;38.35;;;24.80;;
58244;SDS011;44550;43.864;25.986;2022-12-07T08:00:47;44.80;;;29.35;;
58244;SDS011;44550;43.864;25.986;2022-12-07T08:04:47;48.25;;;33.50;;
58244;SDS011;44550;43.864;25.986;2022-12-07T08:08:49;30.55;;;21.67;;
58244;SDS011;44550;43.864;25.986;2022-12-07T08:12:49;41.75;;;28.40;;
58244;SDS011;44550;43.864;25.986;2022-12-07T08:17:05;30.05;;;17.55;;
58244;SDS011;44550;43.864;25.986;2022-12-07T08:21:05;32.75;;;20.55;;
58244;SDS011;44550;43.864;25.986;2022-12-07T08:25:11;22.90;;;14.43;;
58244;SDS011;44550;43.864;25.986;2022-12-07T08:29:13;20.58;;;14.57;;
58244;SDS011;44550;43.864;25.986;2022-12-07T08:33:12;62.25;;;32.30;;
58244;SDS011;44550;43.864;25.986;2022-12-07T08:37:13;113.05;;;99.03;;
58244;SDS011;44550;43.864;25.986;2022-12-07T08:41:15;23.40;;;16.02;;
58244;SDS011;44550;43.864;25.986;2022-12-07T08:45:17;21.67;;;15.15;;
58244;SDS011;44550;43.864;25.986;2022-12-07T08:49:24;22.65;;;16.83;;
58244;SDS011;44550;43.864;25.986;2022-12-07T08:53:27;23.33;;;15.63;;
58244;SDS011;44550;43.864;25.986;2022-12-07T08:57:29;41.63;;;29.77;;
58244;SDS011;44550;43.864;25.986;2022-12-07T09:01:29;26.38;;;18.10;;
58244;SDS011;44550;43.864;25.986;2022-12-07T09:05:29;20.90;;;12.57;;
58244;SDS011;44550;43.864;25.986;2022-12-07T09:09:38;29.80;;;17.15;;
58244;SDS011;44550;43.864;25.986;2022-12-07T09:13:42;25.10;;;16.38;;
58244;SDS011;44550;43.864;25.986;2022-12-07T09:17:43;29.77;;;18.92;;
58244;SDS011;44550;43.864;25.986;2022-12-07T09:21:43;39.17;;;24.48;;
58244;SDS011;44550;43.864;25.986;2022-12-07T09:25:44;28.35;;;18.27;;
58244;SDS011;44550;43.864;25.986;2022-12-07T09:29:45;29.52;;;20.70;;
58244;SDS011;44550;43.864;25.986;2022-12-07T09:33:45;26.60;;;16.27;;
58244;SDS011;44550;43.864;25.986;2022-12-07T09:37:44;29.42;;;21.25;;
58244;SDS011;44550;43.864;25.986;2022-12-07T09:45:45;21.95;;;14.93;;
58244;SDS011;44550;43.864;25.986;2022-12-07T09:49:46;25.33;;;18.08;;
58244;SDS011;44550;43.864;25.986;2022-12-07T09:53:46;22.90;;;16.17;;
58244;SDS011;44550;43.864;25.986;2022-12-07T09:57:47;81.30;;;47.97;;
58244;SDS011;44550;43.864;25.986;2022-12-07T10:01:50;29.38;;;19.10;;
58244;SDS011;44550;43.864;25.986;2022-12-07T10:05:50;52.58;;;38.55;;
58244;SDS011;44550;43.864;25.986;2022-12-07T10:09:52;29.45;;;21.10;;
58244;SDS011;44550;43.864;25.986;2022-12-07T10:17:54;20.02;;;17.15;;
58244;SDS011;44550;43.864;25.986;2022-12-07T10:22:02;24.48;;;16.02;;
58244;SDS011;44550;43.864;25.986;2022-12-07T10:26:19;19.77;;;13.45;;
58244;SDS011;44550;43.864;25.986;2022-12-07T10:30:25;26.52;;;16.67;;
58244;SDS011;44550;43.864;25.986;2022-12-07T10:34:27;54.50;;;30.23;;
58244;SDS011;44550;43.864;25.986;2022-12-07T10:38:35;81.63;;;47.38;;
58244;SDS011;44550;43.864;25.986;2022-12-07T10:42:48;57.97;;;34.67;;
58244;SDS011;44550;43.864;25.986;2022-12-07T10:51:24;38.92;;;25.58;;
58244;SDS011;44550;43.864;25.986;2022-12-07T10:55:39;33.00;;;24.05;;
58244;SDS011;44550;43.864;25.986;2022-12-07T10:59:54;20.90;;;14.23;;
58244;SDS011;44550;43.864;25.986;2022-12-07T11:04:03;23.90;;;14.40;;
58244;SDS011;44550;43.864;25.986;2022-12-07T11:08:18;136.35;;;73.82;;
58244;SDS011;44550;43.864;25.986;2022-12-07T11:12:30;28.25;;;17.20;;
58244;SDS011;44550;43.864;25.986;2022-12-07T11:16:43;27.55;;;19.05;;
58244;SDS011;44550;43.864;25.986;2022-12-07T11:20:52;24.77;;;19.80;;
58244;SDS011;44550;43.864;25.986;2022-12-07T11:25:00;23.20;;;14.95;;
58244;SDS011;44550;43.864;25.986;2022-12-07T11:29:17;23.00;;;15.15;;
58244;SDS011;44550;43.864;25.986;2022-12-07T11:33:29;22.10;;;16.20;;
58244;SDS011;44550;43.864;25.986;2022-12-07T11:37:36;17.70;;;13.35;;
58244;SDS011;44550;43.864;25.986;2022-12-07T11:41:40;22.85;;;13.85;;
58244;SDS011;44550;43.864;25.986;2022-12-07T11:45:42;31.75;;;22.48;;
58244;SDS011;44550;43.864;25.986;2022-12-07T11:49:45;21.00;;;14.45;;
58244;SDS011;44550;43.864;25.986;2022-12-07T11:53:51;22.35;;;15.38;;
58244;SDS011;44550;43.864;25.986;2022-12-07T11:57:56;47.83;;;27.02;;
58244;SDS011;44550;43.864;25.986;2022-12-07T12:02:08;24.48;;;16.35;;
58244;SDS011;44550;43.864;25.986;2022-12-07T12:06:12;31.92;;;18.58;;
58244;SDS011;44550;43.864;25.986;2022-12-07T12:10:15;23.10;;;17.15;;
58244;SDS011;44550;43.864;25.986;2022-12-07T12:14:30;29.48;;;20.25;;
58244;SDS011;44550;43.864;25.986;2022-12-07T12:18:53;26.13;;;18.80;;
58244;SDS011;44550;43.864;25.986;2022-12-07T12:23:10;38.83;;;23.05;;
58244;SDS011;44550;43.864;25.986;2022-12-07T12:27:17;40.22;;;26.17;;
58244;SDS011;44550;43.864;25.986;2022-12-07T12:31:34;55.90;;;33.97;;
58244;SDS011;44550;43.864;25.986;2022-12-07T12:35:36;51.88;;;29.60;;
58244;SDS011;44550;43.864;25.986;2022-12-07T12:39:36;28.40;;;19.10;;
58244;SDS011;44550;43.864;25.986;2022-12-07T12:43:40;22.17;;;16.15;;
58244;SDS011;44550;43.864;25.986;2022-12-07T12:47:58;28.65;;;19.52;;
58244;SDS011;44550;43.864;25.986;2022-12-07T12:51:58;42.58;;;29.15;;
58244;SDS011;44550;43.864;25.986;2022-12-07T13:00:30;31.85;;;25.52;;
58244;SDS011;44550;43.864;25.986;2022-12-07T13:04:37;29.85;;;19.25;;
58244;SDS011;44550;43.864;25.986;2022-12-07T13:08:47;30.23;;;21.00;;
58244;SDS011;44550;43.864;25.986;2022-12-07T13:12:54;48.67;;;32.38;;
58244;SDS011;44550;43.864;25.986;2022-12-07T13:16:54;44.95;;;28.95;;
58244;SDS011;44550;43.864;25.986;2022-12-07T13:20:57;37.25;;;23.88;;
58244;SDS011;44550;43.864;25.986;2022-12-07T13:24:57;29.88;;;19.25;;
58244;SDS011;44550;43.864;25.986;2022-12-07T13:29:05;32.92;;;21.52;;
58244;SDS011;44550;43.864;25.986;2022-12-07T13:33:09;32.08;;;20.08;;
58244;SDS011;44550;43.864;25.986;2022-12-07T13:37:12;32.35;;;21.25;;
58244;SDS011;44550;43.864;25.986;2022-12-07T13:41:18;34.45;;;21.40;;
58244;SDS011;44550;43.864;25.986;2022-12-07T13:45:20;38.47;;;24.30;;
58244;SDS011;44550;43.864;25.986;2022-12-07T13:49:46;41.10;;;23.40;;
58244;SDS011;44550;43.864;25.986;2022-12-07T13:53:52;34.08;;;22.05;;
58244;SDS011;44550;43.864;25.986;2022-12-07T13:57:53;40.42;;;22.88;;
58244;SDS011;44550;43.864;25.986;2022-12-07T14:01:53;53.83;;;30.13;;
58244;SDS011;44550;43.864;25.986;2022-12-07T14:06:03;43.22;;;24.50;;
58244;SDS011;44550;43.864;25.986;2022-12-07T14:14:26;37.97;;;24.80;;
58244;SDS011;44550;43.864;25.986;2022-12-07T14:18:36;43.50;;;24.90;;
58244;SDS011;44550;43.864;25.986;2022-12-07T14:22:37;42.75;;;25.25;;
58244;SDS011;44550;43.864;25.986;2022-12-07T14:26:39;48.17;;;29.83;;
58244;SDS011;44550;43.864;25.986;2022-12-07T14:30:39;51.13;;;27.50;;
58244;SDS011;44550;43.864;25.986;2022-12-07T14:34:40;49.65;;;28.90;;
58244;SDS011;44550;43.864;25.986;2022-12-07T14:42:42;59.53;;;37.35;;
58244;SDS011;44550;43.864;25.986;2022-12-07T14:46:43;61.20;;;36.15;;
58244;SDS011;44550;43.864;25.986;2022-12-07T14:50:44;62.08;;;33.83;;
58244;SDS011;44550;43.864;25.986;2022-12-07T14:55:12;81.18;;;55.55;;
58244;SDS011;44550;43.864;25.986;2022-12-07T14:59:17;71.47;;;58.40;;
58244;SDS011;44550;43.864;25.986;2022-12-07T15:03:17;47.13;;;29.02;;
58244;SDS011;44550;43.864;25.986;2022-12-07T15:07:18;61.97;;;39.17;;
58244;SDS011;44550;43.864;25.986;2022-12-07T15:11:20;65.80;;;41.58;;
58244;SDS011;44550;43.864;25.986;2022-12-07T15:15:22;54.28;;;32.03;;
58244;SDS011;44550;43.864;25.986;2022-12-07T15:19:26;68.40;;;40.55;;
58244;SDS011;44550;43.864;25.986;2022-12-07T15:23:26;64.35;;;43.20;;
58244;SDS011;44550;43.864;25.986;2022-12-07T15:31:27;62.90;;;40.13;;
58244;SDS011;44550;43.864;25.986;2022-12-07T15:35:46;71.22;;;44.92;;
58244;SDS011;44550;43.864;25.986;2022-12-07T15:43:44;53.83;;;30.75;;
58244;SDS011;44550;43.864;25.986;2022-12-07T15:48:02;186.00;;;135.25;;
58244;SDS011;44550;43.864;25.986;2022-12-07T15:52:22;62.75;;;40.25;;
58244;SDS011;44550;43.864;25.986;2022-12-07T16:00:21;44.80;;;30.17;;
58244;SDS011;44550;43.864;25.986;2022-12-07T16:04:26;45.83;;;26.40;;
58244;SDS011;44550;43.864;25.986;2022-12-07T16:08:26;58.63;;;37.60;;
58244;SDS011;44550;43.864;25.986;2022-12-07T16:12:32;50.92;;;30.85;;
58244;SDS011;44550;43.864;25.986;2022-12-07T16:16:31;37.45;;;18.67;;
58244;SDS011;44550;43.864;25.986;2022-12-07T16:20:33;53.17;;;34.90;;
58244;SDS011;44550;43.864;25.986;2022-12-07T16:24:32;44.40;;;28.75;;
58244;SDS011;44550;43.864;25.986;2022-12-07T16:28:32;47.60;;;25.77;;
58244;SDS011;44550;43.864;25.986;2022-12-07T16:32:31;54.72;;;25.35;;
58244;SDS011;44550;43.864;25.986;2022-12-07T16:36:33;47.15;;;24.80;;
58244;SDS011;44550;43.864;25.986;2022-12-07T16:40:52;60.15;;;28.17;;
58244;SDS011;44550;43.864;25.986;2022-12-07T16:44:52;55.35;;;31.52;;
58244;SDS011;44550;43.864;25.986;2022-12-07T16:52:52;57.40;;;27.48;;
58244;SDS011;44550;43.864;25.986;2022-12-07T16:56:53;57.78;;;32.22;;
58244;SDS011;44550;43.864;25.986;2022-12-07T17:00:52;52.70;;;26.77;;
58244;SDS011;44550;43.864;25.986;2022-12-07T17:04:52;63.20;;;36.65;;
58244;SDS011;44550;43.864;25.986;2022-12-07T17:08:54;60.45;;;31.95;;
58244;SDS011;44550;43.864;25.986;2022-12-07T17:12:55;58.58;;;32.75;;
58244;SDS011;44550;43.864;25.986;2022-12-07T17:20:54;59.70;;;32.47;;
58244;SDS011;44550;43.864;25.986;2022-12-07T17:25:04;49.78;;;24.38;;
58244;SDS011;44550;43.864;25.986;2022-12-07T17:29:04;57.08;;;31.52;;
58244;SDS011;44550;43.864;25.986;2022-12-07T17:33:08;65.85;;;31.23;;
58244;SDS011;44550;43.864;25.986;2022-12-07T17:37:07;55.65;;;25.27;;
58244;SDS011;44550;43.864;25.986;2022-12-07T17:45:33;54.13;;;25.27;;
58244;SDS011;44550;43.864;25.986;2022-12-07T17:49:32;34.72;;;18.10;;
58244;SDS011;44550;43.864;25.986;2022-12-07T17:53:32;50.58;;;19.08;;
58244;SDS011;44550;43.864;25.986;2022-12-07T17:57:36;56.92;;;22.85;;
58244;SDS011;44550;43.864;25.986;2022-12-07T18:01:36;56.55;;;25.33;;
58244;SDS011;44550;43.864;25.986;2022-12-07T18:05:37;60.72;;;28.90;;
58244;SDS011;44550;43.864;25.986;2022-12-07T18:09:37;69.78;;;33.70;;
58244;SDS011;44550;43.864;25.986;2022-12-07T18:13:39;68.68;;;25.77;;
58244;SDS011;44550;43.864;25.986;2022-12-07T18:17:38;94.57;;;43.03;;
58244;SDS011;44550;43.864;25.986;2022-12-07T18:21:37;162.32;;;35.30;;
58244;SDS011;44550;43.864;25.986;2022-12-07T18:25:37;97.00;;;26.63;;
58244;SDS011;44550;43.864;25.986;2022-12-07T18:29:40;90.10;;;27.08;;
58244;SDS011;44550;43.864;25.986;2022-12-07T18:33:40;132.32;;;30.80;;
58244;SDS011;44550;43.864;25.986;2022-12-07T18:37:41;103.85;;;29.73;;
58244;SDS011;44550;43.864;25.986;2022-12-07T18:41:41;135.50;;;32.08;;
58244;SDS011;44550;43.864;25.986;2022-12-07T18:45:43;120.60;;;36.42;;
58244;SDS011;44550;43.864;25.986;2022-12-07T18:49:52;166.10;;;78.45;;
58244;SDS011;44550;43.864;25.986;2022-12-07T18:53:51;117.65;;;40.42;;
58244;SDS011;44550;43.864;25.986;2022-12-07T19:01:52;157.73;;;38.90;;
58244;SDS011;44550;43.864;25.986;2022-12-07T19:05:52;161.80;;;63.22;;
58244;SDS011;44550;43.864;25.986;2022-12-07T19:09:53;196.27;;;41.55;;
58244;SDS011;44550;43.864;25.986;2022-12-07T19:17:54;144.88;;;40.17;;
58244;SDS011;44550;43.864;25.986;2022-12-07T19:21:53;156.27;;;33.20;;
58244;SDS011;44550;43.864;25.986;2022-12-07T19:25:53;158.63;;;41.97;;
58244;SDS011;44550;43.864;25.986;2022-12-07T19:33:54;153.60;;;51.97;;
58244;SDS011;44550;43.864;25.986;2022-12-07T19:37:53;167.20;;;59.47;;
58244;SDS011;44550;43.864;25.986;2022-12-07T19:41:53;148.65;;;33.70;;
58244;SDS011;44550;43.864;25.986;2022-12-07T19:45:53;172.68;;;61.83;;
58244;SDS011;44550;43.864;25.986;2022-12-07T19:49:55;141.60;;;42.58;;
58244;SDS011;44550;43.864;25.986;2022-12-07T19:53:57;100.47;;;25.95;;
58244;SDS011;44550;43.864;25.986;2022-12-07T19:57:57;139.95;;;35.42;;
58244;SDS011;44550;43.864;25.986;2022-12-07T20:05:59;120.20;;;32.78;;
58244;SDS011;44550;43.864;25.986;2022-12-07T20:09:59;112.30;;;27.10;;
58244;SDS011;44550;43.864;25.986;2022-12-07T20:13:59;241.15;;;83.00;;
58244;SDS011;44550;43.864;25.986;2022-12-07T20:17:59;256.58;;;91.03;;
58244;SDS011;44550;43.864;25.986;2022-12-07T20:22:00;141.15;;;52.38;;
58244;SDS011;44550;43.864;25.986;2022-12-07T20:26:00;407.63;;;174.25;;
58244;SDS011;44550;43.864;25.986;2022-12-07T20:30:01;215.38;;;44.05;;
58244;SDS011;44550;43.864;25.986;2022-12-07T20:38:02;194.88;;;92.15;;
58244;SDS011;44550;43.864;25.986;2022-12-07T20:42:01;205.05;;;48.22;;
58244;SDS011;44550;43.864;25.986;2022-12-07T20:46:17;163.98;;;35.47;;
58244;SDS011;44550;43.864;25.986;2022-12-07T20:50:17;249.20;;;66.53;;
58244;SDS011;44550;43.864;25.986;2022-12-07T20:54:18;151.73;;;33.70;;
58244;SDS011;44550;43.864;25.986;2022-12-07T20:58:18;251.90;;;55.92;;
58244;SDS011;44550;43.864;25.986;2022-12-07T21:02:24;237.00;;;43.60;;
58244;SDS011;44550;43.864;25.986;2022-12-07T21:06:24;210.23;;;83.90;;
58244;SDS011;44550;43.864;25.986;2022-12-07T21:10:26;183.02;;;71.88;;
58244;SDS011;44550;43.864;25.986;2022-12-07T21:14:26;173.10;;;38.47;;
58244;SDS011;44550;43.864;25.986;2022-12-07T21:18:25;189.00;;;37.80;;
58244;SDS011;44550;43.864;25.986;2022-12-07T21:22:26;153.07;;;35.33;;
58244;SDS011;44550;43.864;25.986;2022-12-07T21:30:29;126.88;;;31.08;;
58244;SDS011;44550;43.864;25.986;2022-12-07T21:34:48;86.43;;;33.73;;
58244;SDS011;44550;43.864;25.986;2022-12-07T21:38:48;152.50;;;40.47;;
58244;SDS011;44550;43.864;25.986;2022-12-07T21:42:50;176.05;;;38.63;;
58244;SDS011;44550;43.864;25.986;2022-12-07T21:46:51;119.93;;;37.80;;
58244;SDS011;44550;43.864;25.986;2022-12-07T21:50:51;97.65;;;28.80;;
58244;SDS011;44550;43.864;25.986;2022-12-07T21:54:50;93.78;;;32.15;;
58244;SDS011;44550;43.864;25.986;2022-12-07T21:58:52;89.88;;;29.88;;
58244;SDS011;44550;43.864;25.986;2022-12-07T22:02:52;107.25;;;47.72;;
58244;SDS011;44550;43.864;25.986;2022-12-07T22:06:53;103.75;;;29.77;;
58244;SDS011;44550;43.864;25.986;2022-12-07T22:10:59;80.90;;;27.58;;
58244;SDS011;44550;43.864;25.986;2022-12-07T22:15:01;97.53;;;33.80;;
58244;SDS011;44550;43.864;25.986;2022-12-07T22:19:06;141.77;;;34.35;;
58244;SDS011;44550;43.864;25.986;2022-12-07T22:23:06;143.27;;;35.03;;
58244;SDS011;44550;43.864;25.986;2022-12-07T22:31:07;109.40;;;31.70;;
58244;SDS011;44550;43.864;25.986;2022-12-07T22:35:08;193.45;;;38.17;;
58244;SDS011;44550;43.864;25.986;2022-12-07T22:43:07;191.10;;;37.33;;
58244;SDS011;44550;43.864;25.986;2022-12-07T22:47:09;160.80;;;36.05;;
58244;SDS011;44550;43.864;25.986;2022-12-07T22:51:21;127.63;;;30.80;;
58244;SDS011;44550;43.864;25.986;2022-12-07T22:55:21;135.30;;;30.45;;
58244;SDS011;44550;43.864;25.986;2022-12-07T22:59:20;129.75;;;28.48;;
58244;SDS011;44550;43.864;25.986;2022-12-07T23:03:22;157.20;;;33.05;;
58244;SDS011;44550;43.864;25.986;2022-12-07T23:07:21;168.40;;;32.63;;
58244;SDS011;44550;43.864;25.986;2022-12-07T23:11:22;401.52;;;52.40;;
58244;SDS011;44550;43.864;25.986;2022-12-07T23:15:40;244.50;;;37.95;;
58244;SDS011;44550;43.864;25.986;2022-12-07T23:19:42;145.48;;;29.50;;
58244;SDS011;44550;43.864;25.986;2022-12-07T23:23:47;165.38;;;30.42;;
58244;SDS011;44550;43.864;25.986;2022-12-07T23:27:46;181.82;;;30.85;;
58244;SDS011;44550;43.864;25.986;2022-12-07T23:31:46;294.00;;;44.90;;
58244;SDS011;44550;43.864;25.986;2022-12-07T23:35:49;289.08;;;42.95;;
58244;SDS011;44550;43.864;25.986;2022-12-07T23:39:48;247.32;;;38.95;;
58244;SDS011;44550;43.864;25.986;2022-12-07T23:47:48;225.73;;;36.35;;
58244;SDS011;44550;43.864;25.986;2022-12-07T23:59:49;155.10;;;28.05;;
